Time;durP1;ratioP1;P1;durP2;ratioP2;P2;SDS_P1;SDS_P2;PMS_P1;PMS_P2;Temp;Humidity;BMP_temperature;BMP_pressure;BME280_temperature;BME280_humidity;BME280_pressure;Samples;Min_cycle;Max_cycle;Signal;HPM_P1;HPM_P2
2022/04/27 00:00:13;;;;;;;7.68;4.82;;;;;;;13.44;59.87;99153.53;4290281;33;33605;-72
2022/04/27 00:02:41;;;;;;;6.22;3.58;;;;;;;13.70;57.51;99152.03;4288948;33;35937;-71
2022/04/27 00:05:09;;;;;;;7.62;4.28;;;;;;;14.48;55.46;99166.44;4290180;33;35267;-71
2022/04/27 00:07:37;;;;;;;10.07;4.65;;;;;;;14.51;54.89;99161.97;4289497;33;34546;-72
2022/04/27 00:10:06;;;;;;;9.32;4.65;;;;;;;14.87;55.09;99181.91;4290284;33;34136;-72
2022/04/27 00:12:35;;;;;;;9.25;4.95;;;;;;;14.60;56.09;99171.34;4289521;33;34927;-72
2022/04/27 00:15:04;;;;;;;8.75;5.20;;;;;;;14.90;53.95;99173.97;4289292;33;34864;-72
2022/04/27 00:17:34;;;;;;;8.65;5.60;;;;;;;15.18;53.81;99179.19;4276851;33;34602;-72
2022/04/27 00:20:02;;;;;;;9.27;4.85;;;;;;;14.95;53.89;99183.38;4289215;33;33742;-71
2022/04/27 00:22:30;;;;;;;7.03;4.05;;;;;;;14.10;56.48;99179.75;4290186;33;34889;-74
2022/04/27 00:25:00;;;;;;;6.47;4.35;;;;;;;14.41;57.31;99176.25;4289317;33;32897;-71
2022/04/27 00:27:28;;;;;;;7.93;4.82;;;;;;;15.22;55.12;99175.53;4290167;33;33690;-72
2022/04/27 00:29:57;;;;;;;7.25;4.12;;;;;;;14.83;55.30;99183.75;4289338;33;34636;-72
2022/04/27 00:32:25;;;;;;;7.57;4.30;;;;;;;14.78;56.40;99180.41;4289078;33;34975;-72
2022/04/27 00:34:53;;;;;;;9.60;5.10;;;;;;;14.96;54.36;99174.62;4275657;33;34437;-72
2022/04/27 00:37:21;;;;;;;8.10;4.18;;;;;;;14.31;58.14;99167.81;4289915;33;33765;-72
2022/04/27 00:39:49;;;;;;;7.43;4.35;;;;;;;15.11;56.33;99177.66;4289278;33;34716;-72
2022/04/27 00:42:21;;;;;;;8.60;4.65;;;;;;;14.93;56.70;99190.44;4290024;33;35140;-72
2022/04/27 00:44:50;;;;;;;7.62;4.65;;;;;;;14.70;57.24;99185.03;4287893;33;35054;-72
2022/04/27 00:47:18;;;;;;;8.88;4.57;;;;;;;14.54;57.09;99192.44;4289587;33;34571;-72
2022/04/27 00:49:48;;;;;;;8.75;4.75;;;;;;;14.83;56.37;99183.75;4289057;33;34631;-71
2022/04/27 00:52:17;;;;;;;9.38;5.47;;;;;;;14.71;58.07;99189.38;4289007;33;35045;-72
2022/04/27 00:54:47;;;;;;;9.70;5.72;;;;;;;14.41;59.53;99190.19;4289117;33;34686;-72
2022/04/27 00:57:15;;;;;;;17.52;6.20;;;;;;;14.34;60.26;99193.87;4289793;33;35700;-72
2022/04/27 00:59:43;;;;;;;10.98;6.03;;;;;;;14.40;60.66;99191.09;4288924;33;33855;-72
2022/04/27 01:02:11;;;;;;;13.60;7.47;;;;;;;13.57;62.58;99182.00;4289041;33;35136;-71
2022/04/27 01:04:39;;;;;;;9.98;5.72;;;;;;;13.59;62.96;99188.09;4288908;33;34675;-72
2022/04/27 01:07:07;;;;;;;12.82;6.22;;;;;;;13.87;62.37;99184.72;4288936;33;34345;-72
2022/04/27 01:09:35;;;;;;;12.10;6.85;;;;;;;13.25;65.56;99186.25;4289159;33;33919;-72
2022/04/27 01:12:04;;;;;;;11.07;7.20;;;;;;;13.36;66.45;99188.62;4289746;33;35045;-72
2022/04/27 01:14:51;;;;;;;13.65;7.65;;;;;;;13.75;65.09;99186.78;4289167;33;34568;-73
2022/04/27 01:17:21;;;;;;;9.55;6.57;;;;;;;12.99;68.56;99190.34;4288871;33;34219;-71
2022/04/27 01:19:50;;;;;;;10.50;6.45;;;;;;;12.61;70.42;99189.44;4289476;33;34690;-71
2022/04/27 01:22:18;;;;;;;12.52;6.72;;;;;;;13.05;69.31;99192.81;4289014;33;35875;-71
2022/04/27 01:24:46;;;;;;;16.20;7.53;;;;;;;13.23;68.51;99188.91;4288828;33;35350;-71
2022/04/27 01:27:15;;;;;;;13.45;7.57;;;;;;;12.75;69.64;99201.34;4289431;33;34522;-71
2022/04/27 01:29:43;;;;;;;12.25;7.40;;;;;;;12.67;70.73;99205.00;4287916;33;33918;-71
2022/04/27 01:32:11;;;;;;;13.95;7.03;;;;;;;12.59;71.10;99212.12;4289722;33;35062;-72
2022/04/27 01:34:39;;;;;;;11.82;6.75;;;;;;;12.54;71.35;99207.91;4288499;33;34500;-77
2022/04/27 01:39:54;;;;;;;14.15;7.20;;;;;;;13.06;69.48;99212.84;4288913;33;34633;-71
2022/04/27 01:42:22;;;;;;;13.30;7.80;;;;;;;12.66;70.77;99223.31;4287779;33;34506;-72
2022/04/27 01:44:50;;;;;;;10.00;6.60;;;;;;;12.59;70.75;99222.56;4288250;33;34894;-71
2022/04/27 01:47:18;;;;;;;11.43;6.75;;;;;;;12.77;70.28;99226.53;4289221;33;33440;-71
2022/04/27 01:49:46;;;;;;;11.60;7.25;;;;;;;12.95;70.19;99235.72;4290059;33;34438;-71
2022/04/27 01:55:01;;;;;;;10.48;6.20;;;;;;;12.78;70.12;99237.88;4290004;33;35388;-71
2022/04/27 01:57:30;;;;;;;14.15;7.80;;;;;;;12.96;69.07;99237.47;4291238;33;34670;-71
2022/04/27 01:59:59;;;;;;;15.38;7.78;;;;;;;13.35;67.96;99223.53;4277501;33;34017;-72
2022/04/27 02:02:29;;;;;;;11.30;6.55;;;;;;;13.31;68.03;99222.75;4290617;33;35985;-71
2022/04/27 02:04:58;;;;;;;13.32;7.10;;;;;;;13.42;67.10;99230.34;4290404;33;34532;-71
2022/04/27 02:07:26;;;;;;;14.05;7.78;;;;;;;13.58;67.88;99223.84;4289360;33;34535;-76
2022/04/27 02:09:54;;;;;;;22.62;8.88;;;;;;;13.60;67.62;99222.03;4289966;33;34741;-72
2022/04/27 02:12:22;;;;;;;14.65;7.25;;;;;;;13.29;69.43;99221.91;4289225;33;34922;-77
2022/04/27 02:14:52;;;;;;;14.60;7.95;;;;;;;12.82;71.62;99219.47;4284695;33;178556;-78
2022/04/27 02:17:20;;;;;;;13.30;7.50;;;;;;;13.49;69.44;99210.13;4290956;33;33587;-71
2022/04/27 02:19:48;;;;;;;12.13;7.95;;;;;;;13.65;68.75;99204.47;4290264;33;33875;-75
2022/04/27 02:22:17;;;;;;;14.60;7.60;;;;;;;13.21;70.00;99213.38;4290592;33;35828;-76
2022/04/27 02:24:45;;;;;;;11.50;7.50;;;;;;;12.75;73.43;99206.59;4289639;33;34471;-77
2022/04/27 02:27:14;;;;;;;13.75;8.05;;;;;;;12.55;74.37;99200.03;4277176;33;33604;-73
2022/04/27 02:29:42;;;;;;;12.98;7.70;;;;;;;12.94;72.52;99201.81;4290098;33;33925;-78
2022/04/27 02:32:11;;;;;;;13.52;7.78;;;;;;;12.43;74.90;99201.13;4290083;33;35200;-71
2022/04/27 02:34:39;;;;;;;16.12;8.07;;;;;;;12.99;72.24;99200.81;4290090;33;34044;-72
2022/04/27 02:37:07;;;;;;;13.48;7.90;;;;;;;13.63;69.62;99198.41;4290624;33;33523;-71
2022/04/27 02:39:36;;;;;;;12.65;7.55;;;;;;;13.62;70.12;99190.59;4289825;33;34792;-71
2022/04/27 02:42:05;;;;;;;19.27;8.57;;;;;;;13.30;70.95;99197.47;4290160;33;34970;-71
2022/04/27 02:44:33;;;;;;;13.85;8.55;;;;;;;12.59;75.24;99201.69;4283562;33;35255;-72
2022/04/27 02:47:03;;;;;;;15.30;7.95;;;;;;;12.05;78.17;99204.50;4291001;33;33998;-71
2022/04/27 02:52:17;;;;;;;;;;;;;;;12.23;77.77;99187.63;4291203;33;35003;-72
2022/04/27 02:54:47;;;;;;;13.68;7.82;;;;;;;11.75;79.74;99191.09;4290156;33;34616;-71
2022/04/27 02:57:16;;;;;;;12.95;7.95;;;;;;;11.88;80.11;99187.38;4290711;33;33814;-71
2022/04/27 02:59:45;;;;;;;14.18;8.07;;;;;;;11.81;80.00;99191.00;4288938;33;34651;-74
2022/04/27 03:02:13;;;;;;;17.40;8.52;;;;;;;11.85;80.37;99186.59;4290708;33;35204;-71
2022/04/27 03:04:42;;;;;;;14.77;9.32;;;;;;;11.82;80.96;99190.09;4290037;33;34674;-72
2022/04/27 03:07:10;;;;;;;16.15;8.10;;;;;;;12.08;79.55;99194.00;4289933;33;33732;-71
2022/04/27 03:09:40;;;;;;;14.38;7.85;;;;;;;12.46;78.06;99192.41;4290057;33;33971;-71
2022/04/27 03:12:08;;;;;;;18.48;8.52;;;;;;;12.62;76.39;99206.84;4290467;33;35887;-71
2022/04/27 03:14:37;;;;;;;16.20;8.15;;;;;;;12.14;78.72;99204.31;4290000;33;34607;-72
2022/04/27 03:17:05;;;;;;;13.07;7.80;;;;;;;12.44;77.60;99204.59;4290541;33;34606;-72
2022/04/27 03:19:33;;;;;;;14.10;8.52;;;;;;;12.89;74.35;99201.91;4289996;33;34021;-72
2022/04/27 03:22:01;;;;;;;13.52;7.78;;;;;;;12.13;77.98;99202.63;4290801;33;35030;-72
2022/04/27 03:24:30;;;;;;;13.45;7.93;;;;;;;11.99;80.07;99202.03;4289568;33;34340;-71
2022/04/27 03:26:58;;;;;;;16.15;9.57;;;;;;;12.43;77.76;99205.50;4284604;33;33693;-71
2022/04/27 03:29:27;;;;;;;12.45;7.57;;;;;;;12.46;78.11;99205.47;4289633;33;33843;-72
2022/04/27 03:31:55;;;;;;;13.32;7.35;;;;;;;12.94;76.02;99202.66;4289899;33;35042;-72
2022/04/27 03:34:23;;;;;;;15.38;8.48;;;;;;;13.12;74.87;99205.75;4289545;33;34274;-72
2022/04/27 03:36:52;;;;;;;14.20;7.85;;;;;;;12.78;76.13;99210.00;4290769;33;34656;-72
2022/04/27 03:39:20;;;;;;;16.37;7.60;;;;;;;13.21;74.54;99205.53;4289900;33;33947;-71
2022/04/27 03:42:09;;;;;;;14.02;8.30;;;;;;;13.23;74.19;99208.97;4289897;33;35216;-71
2022/04/27 03:44:37;;;;;;;15.75;7.97;;;;;;;12.49;77.96;99213.19;4289758;33;34479;-72
2022/04/27 03:47:06;;;;;;;13.40;8.23;;;;;;;12.27;79.96;99218.88;4289822;33;33814;-72
2022/04/27 03:49:34;;;;;;;15.40;7.75;;;;;;;12.23;80.38;99217.22;4289644;33;34793;-72
2022/04/27 03:52:03;;;;;;;15.85;7.50;;;;;;;12.80;76.71;99225.63;4290345;33;34983;-72
2022/04/27 03:54:31;;;;;;;13.88;8.35;;;;;;;12.36;78.00;99223.03;4289661;33;34635;-72
2022/04/27 03:56:59;;;;;;;13.18;7.82;;;;;;;12.81;76.25;99225.59;4277198;33;32963;-71
2022/04/27 03:59:28;;;;;;;12.25;7.60;;;;;;;12.61;75.98;99220.78;4289844;33;34628;-71
2022/04/27 04:01:56;;;;;;;13.38;7.72;;;;;;;12.70;75.70;99224.97;4288638;33;34614;-72
2022/04/27 04:04:25;;;;;;;14.27;8.07;;;;;;;12.69;75.47;99231.94;4288672;33;35395;-73
2022/04/27 04:06:53;;;;;;;13.73;7.82;;;;;;;12.27;77.12;99241.50;4290162;33;34598;-71
2022/04/27 04:09:21;;;;;;;12.00;7.22;;;;;;;12.38;77.03;99242.16;4289521;33;34103;-71
2022/04/27 04:11:50;;;;;;;19.67;7.82;;;;;;;13.28;72.93;99243.72;4289743;33;35022;-71
2022/04/27 04:14:18;;;;;;;13.65;7.68;;;;;;;12.52;76.70;99242.72;4289352;33;34542;-71
2022/04/27 04:16:47;;;;;;;14.68;7.90;;;;;;;12.33;77.24;99244.88;4289283;33;33851;-71
2022/04/27 04:19:17;;;;;;;13.52;7.97;;;;;;;13.05;74.17;99257.31;4288330;33;34210;-71
2022/04/27 04:21:45;;;;;;;14.32;7.15;;;;;;;12.74;75.07;99257.97;4289991;33;35927;-71
2022/04/27 04:24:13;;;;;;;12.77;7.28;;;;;;;13.22;72.00;99255.19;4289252;33;34984;-77
2022/04/27 04:29:31;;;;;;;13.07;7.37;;;;;;;13.02;73.08;99262.59;4289332;33;34608;-74
2022/04/27 04:32:00;;;;;;;12.37;7.85;;;;;;;12.48;74.75;99261.13;4288543;33;34230;-71
2022/04/27 04:34:30;;;;;;;11.20;7.40;;;;;;;13.19;72.66;99264.84;4278932;33;33677;-76
2022/04/27 04:36:58;;;;;;;13.73;7.53;;;;;;;12.55;74.66;99264.44;4290114;33;33641;-77
2022/04/27 04:39:27;;;;;;;13.10;7.82;;;;;;;12.89;73.21;99268.09;4288995;33;34759;-76
2022/04/27 04:41:55;;;;;;;16.05;7.82;;;;;;;12.67;74.12;99267.69;4289999;33;35409;-72
2022/04/27 04:44:23;;;;;;;12.88;7.75;;;;;;;12.09;77.39;99268.81;4289217;33;35318;-72
2022/04/27 04:46:53;;;;;;;20.92;8.15;;;;;;;11.97;79.22;99272.50;4290036;33;34590;-72
2022/04/27 04:49:21;;;;;;;14.48;8.55;;;;;;;12.41;76.60;99272.59;4288137;33;33894;-71
2022/04/27 04:51:49;;;;;;;14.40;7.85;;;;;;;11.93;79.27;99276.06;4289000;33;35952;-71
2022/04/27 04:54:18;;;;;;;14.50;9.02;;;;;;;12.00;78.86;99276.78;4289661;33;34350;-71
2022/04/27 04:56:47;;;;;;;14.82;8.68;;;;;;;11.84;80.36;99277.03;4289745;33;33807;-71
2022/04/27 04:59:15;;;;;;;13.50;8.43;;;;;;;12.66;75.57;99265.12;4289613;33;34841;-76
2022/04/27 05:01:44;;;;;;;14.85;8.05;;;;;;;12.73;75.16;99271.06;4289599;33;35978;-77
2022/04/27 05:04:12;;;;;;;14.07;8.48;;;;;;;12.26;76.98;99271.09;4289325;33;34865;-74
2022/04/27 05:06:46;;;;;;;15.07;8.88;;;;;;;13.23;73.39;99274.34;4289490;33;33592;-76
2022/04/27 05:09:16;;;;;;;15.18;8.10;;;;;;;13.26;73.75;99288.19;4288297;33;33740;-72
2022/04/27 05:11:44;;;;;;;15.95;8.15;;;;;;;12.71;77.03;99285.03;4289681;33;35001;-71
2022/04/27 05:14:12;;;;;;;16.40;8.50;;;;;;;12.63;78.82;99292.13;4288808;33;34493;-75
2022/04/27 05:16:43;;;;;;;12.88;7.95;;;;;;;13.49;73.93;99294.69;4289434;33;33718;-72
2022/04/27 05:19:11;;;;;;;13.30;8.27;;;;;;;13.36;75.34;99290.63;4288636;33;34846;-72
2022/04/27 05:21:40;;;;;;;13.13;7.93;;;;;;;13.31;78.47;99297.72;4288755;33;35807;-72
2022/04/27 05:24:11;;;;;;;15.68;8.75;;;;;;;13.45;79.49;99293.91;4288682;33;34492;-71
2022/04/27 05:26:39;;;;;;;13.23;8.32;;;;;;;13.80;76.55;99299.19;4277025;33;32932;-71
2022/04/27 05:31:55;;;;;;;11.50;7.28;;;;;;;15.17;71.88;99313.84;4290578;33;35897;-71
2022/04/27 05:34:30;;;;;;;13.65;7.03;;;;;;;15.33;68.99;99303.75;4290449;33;34578;-71
2022/04/27 05:37:00;;;;;;;11.77;6.80;;;;;;;14.88;69.76;99299.84;4291372;33;33856;-71
2022/04/27 05:39:31;;;;;;;10.85;6.57;;;;;;;15.50;67.56;99305.84;4289557;33;34733;-72
2022/04/27 05:42:01;;;;;;;12.30;6.68;;;;;;;15.41;68.67;99314.87;4291245;33;35086;-71
2022/04/27 05:44:31;;;;;;;12.02;7.03;;;;;;;16.05;63.58;99319.84;4290667;33;35347;-71
2022/04/27 05:47:00;;;;;;;10.82;6.70;;;;;;;15.12;67.19;99315.75;4291438;33;33719;-72
2022/04/27 05:49:28;;;;;;;10.45;5.68;;;;;;;15.57;65.17;99317.88;4290220;33;34757;-71
2022/04/27 05:51:59;;;;;;;10.32;6.30;;;;;;;16.30;62.03;99324.25;4290374;33;34640;-75
2022/04/27 05:54:28;;;;;;;11.98;7.03;;;;;;;15.36;66.65;99330.75;4289168;33;35521;-75
2022/04/27 05:56:56;;;;;;;9.15;5.82;;;;;;;16.20;62.44;99328.09;4291057;33;33676;-72
2022/04/27 05:59:24;;;;;;;13.80;6.47;;;;;;;16.01;61.99;99326.12;4290154;33;33990;-73
2022/04/27 06:01:55;;;;;;;8.60;5.65;;;;;;;16.61;59.00;99331.09;4289788;33;34673;-75
2022/04/27 06:04:26;;;;;;;10.85;6.32;;;;;;;15.98;62.91;99331.47;4290323;33;34341;-72
2022/04/27 06:06:54;;;;;;;13.05;7.30;;;;;;;16.02;62.42;99330.44;4290797;33;33710;-75
2022/04/27 06:09:23;;;;;;;12.68;6.95;;;;;;;16.42;58.82;99334.34;4290186;33;34087;-71
2022/04/27 06:11:52;;;;;;;11.40;6.35;;;;;;;16.30;60.25;99337.41;4289052;33;36035;-74
2022/04/27 06:14:36;;;;;;;10.07;6.03;;;;;;;15.00;65.80;99342.31;4279115;33;32990;-72
2022/04/27 06:17:05;;;;;;;10.88;6.18;;;;;;;15.12;63.33;99347.22;4290710;33;34423;-72
2022/04/27 06:19:34;;;;;;;12.82;7.65;;;;;;;15.52;62.37;99346.88;4290268;33;34097;-75
2022/04/27 06:22:02;;;;;;;10.40;6.53;;;;;;;15.80;60.99;99351.31;4290772;33;35865;-75
2022/04/27 06:24:31;;;;;;;12.68;8.40;;;;;;;16.02;60.02;99351.44;4290255;33;35336;-74
2022/04/27 06:27:04;;;;;;;25.40;19.25;;;;;;;15.84;60.04;99358.16;4288919;33;33612;-74
2022/04/27 06:29:33;;;;;;;13.07;8.68;;;;;;;15.12;69.30;99362.94;4289325;33;34102;-74
2022/04/27 06:32:01;;;;;;;15.30;9.40;;;;;;;15.10;67.55;99359.50;4290811;33;34913;-71
2022/04/27 06:34:29;;;;;;;13.82;9.13;;;;;;;15.06;68.14;99357.91;4289953;33;34987;-71
2022/04/27 06:36:58;;;;;;;23.60;13.07;;;;;;;14.56;69.49;99364.47;4276355;33;33825;-71
2022/04/27 06:39:26;;;;;;;18.35;11.15;;;;;;;14.42;69.20;99361.34;4276092;33;33812;-71
2022/04/27 06:41:55;;;;;;;37.60;23.80;;;;;;;13.93;71.99;99357.34;4290463;33;35131;-72
2022/04/27 06:44:33;;;;;;;18.00;12.20;;;;;;;13.68;73.26;99364.91;4289529;33;33399;-71
2022/04/27 06:47:08;;;;;;;16.90;10.95;;;;;;;13.63;72.60;99370.25;4279848;33;33300;-71
2022/04/27 06:49:51;;;;;;;15.88;9.27;;;;;;;13.92;71.67;99371.31;4290040;33;34758;-71
2022/04/27 06:52:30;;;;;;;16.42;10.25;;;;;;;13.82;72.13;99370.69;4290706;33;34611;-71
2022/04/27 06:55:01;;;;;;;15.98;10.15;;;;;;;14.25;70.93;99368.78;4289084;33;34341;-71
2022/04/27 06:57:31;;;;;;;17.77;10.45;;;;;;;13.86;72.07;99376.72;4290970;33;32417;-72
2022/04/27 06:59:59;;;;;;;17.27;9.63;;;;;;;13.80;73.91;99383.81;4289401;33;33915;-71
2022/04/27 07:02:29;;;;;;;15.18;9.10;;;;;;;14.15;70.49;99379.50;4290629;33;36015;-71
2022/04/27 07:05:01;;;;;;;13.88;8.85;;;;;;;13.89;71.78;99379.25;4288913;33;34515;-71
2022/04/27 07:07:29;;;;;;;15.45;9.38;;;;;;;13.97;71.61;99380.78;4290661;33;34311;-71
2022/04/27 07:09:58;;;;;;;16.45;9.48;;;;;;;14.40;71.71;99386.75;4289695;33;34654;-71
2022/04/27 07:12:25;;;;;;;16.58;10.30;;;;;;;14.43;72.06;99384.00;4290620;33;35882;-72
2022/04/27 07:14:54;;;;;;;18.08;10.02;;;;;;;13.65;75.04;99384.16;4289057;33;34419;-71
2022/04/27 07:17:22;;;;;;;18.15;11.10;;;;;;;13.46;76.83;99386.31;4290599;33;33803;-71
2022/04/27 07:19:50;;;;;;;18.67;10.65;;;;;;;14.26;73.97;99386.19;4289792;33;33856;-71
2022/04/27 07:22:18;;;;;;;17.02;9.43;;;;;;;14.97;68.91;99390.47;4290291;33;34915;-72
2022/04/27 07:24:49;;;;;;;15.75;9.50;;;;;;;14.33;71.50;99393.00;4289766;33;34624;-71
2022/04/27 07:27:18;;;;;;;14.82;10.25;;;;;;;14.39;70.46;99395.47;4276372;33;33803;-71
2022/04/27 07:29:46;;;;;;;16.62;10.15;;;;;;;14.27;72.51;99394.03;4263149;33;34086;-71
2022/04/27 07:32:14;;;;;;;18.15;10.18;;;;;;;14.29;73.93;99396.59;4278435;33;35117;-71
2022/04/27 07:34:42;;;;;;;17.52;10.40;;;;;;;15.47;69.00;99398.63;4290497;33;34519;-72
2022/04/27 07:37:10;;;;;;;16.52;10.15;;;;;;;14.62;73.79;99409.78;4289670;33;34545;-71
2022/04/27 07:39:38;;;;;;;16.17;9.73;;;;;;;15.32;69.74;99405.22;4290427;33;34664;-72
2022/04/27 07:42:06;;;;;;;15.88;8.75;;;;;;;15.70;67.63;99405.81;4289590;33;35079;-72
2022/04/27 07:44:34;;;;;;;16.05;8.95;;;;;;;15.85;66.27;99399.28;4290313;33;35239;-74
2022/04/27 07:47:03;;;;;;;17.77;11.15;;;;;;;16.38;64.40;99401.06;4288883;33;34412;-71
2022/04/27 07:49:31;;;;;;;18.65;11.05;;;;;;;15.55;67.73;99408.94;4289496;33;34865;-71
2022/04/27 07:52:00;;;;;;;14.32;8.13;;;;;;;15.55;67.84;99406.31;4289629;33;34796;-71
2022/04/27 07:54:28;;;;;;;15.18;9.20;;;;;;;15.73;65.16;99412.75;4289457;33;34321;-71
2022/04/27 07:56:56;;;;;;;17.50;8.82;;;;;;;16.36;64.32;99412.53;4289052;33;33757;-72
2022/04/27 07:59:24;;;;;;;14.57;9.18;;;;;;;16.47;62.71;99410.41;4290400;33;34074;-72
2022/04/27 08:01:52;;;;;;;17.23;9.38;;;;;;;16.85;64.67;99418.78;4289356;33;35153;-72
2022/04/27 08:04:20;;;;;;;19.95;10.20;;;;;;;16.62;64.34;99416.91;4289649;33;34372;-71
2022/04/27 08:06:48;;;;;;;12.73;8.27;;;;;;;16.71;61.88;99413.09;4289365;33;33802;-72
2022/04/27 08:09:16;;;;;;;14.25;9.02;;;;;;;16.93;62.33;99414.09;4290240;33;33650;-72
2022/04/27 08:11:45;;;;;;;14.15;8.00;;;;;;;16.94;61.73;99407.94;4288610;33;36005;-71
2022/04/27 08:14:13;;;;;;;12.15;7.18;;;;;;;17.78;58.90;99410.94;4290149;33;34699;-71
2022/04/27 08:16:41;;;;;;;13.85;8.90;;;;;;;17.89;58.08;99418.47;4289423;33;33820;-72
2022/04/27 08:19:09;;;;;;;22.13;10.38;;;;;;;16.78;61.42;99423.38;4287903;33;33836;-72
2022/04/27 08:21:37;;;;;;;15.98;8.52;;;;;;;17.12;61.59;99424.84;4289403;33;35025;-72
2022/04/27 08:24:10;;;;;;;14.90;9.40;;;;;;;17.16;59.46;99426.44;4290113;33;35339;-71
2022/04/27 08:26:39;;;;;;;13.68;8.30;;;;;;;17.01;60.90;99429.59;4289415;33;33654;-72
2022/04/27 08:29:07;;;;;;;14.63;8.75;;;;;;;17.37;60.53;99435.31;4289138;33;34039;-72
2022/04/27 08:31:35;;;;;;;18.12;10.05;;;;;;;17.39;60.14;99433.47;4289315;33;35161;-72
2022/04/27 08:34:03;;;;;;;16.58;9.57;;;;;;;17.42;60.88;99438.63;4289550;33;35355;-72
2022/04/27 08:36:31;;;;;;;17.35;10.65;;;;;;;16.32;64.67;99437.19;4289184;33;34026;-72
2022/04/27 08:39:00;;;;;;;70.85;30.20;;;;;;;17.15;62.06;99437.00;4290006;33;34089;-72
2022/04/27 08:41:29;;;;;;;94.43;46.05;;;;;;;16.61;63.25;99438.88;4289049;33;34864;-71
2022/04/27 08:43:57;;;;;;;47.05;33.97;;;;;;;17.34;61.18;99440.69;4290102;33;34383;-72
2022/04/27 08:46:26;;;;;;;17.62;10.77;;;;;;;16.39;64.87;99444.81;4289398;33;33626;-72
2022/04/27 08:48:55;;;;;;;17.23;9.98;;;;;;;16.85;63.46;99443.31;4289183;33;35342;-72
2022/04/27 08:51:22;;;;;;;68.07;32.33;;;;;;;17.02;61.83;99439.22;4288868;33;35040;-72
2022/04/27 08:53:50;;;;;;;18.73;11.20;;;;;;;17.43;62.63;99436.84;4289461;33;34436;-71
2022/04/27 08:56:19;;;;;;;16.48;9.32;;;;;;;17.20;62.45;99421.91;4289507;33;34454;-71
2022/04/27 08:58:47;;;;;;;15.35;10.30;;;;;;;17.58;60.48;99431.00;4289754;33;34764;-72
2022/04/27 09:01:16;;;;;;;134.80;66.45;;;;;;;17.28;62.82;99429.50;4289805;33;35985;-71
2022/04/27 09:03:44;;;;;;;20.50;14.65;;;;;;;17.56;63.65;99427.59;4289903;33;35287;-72
2022/04/27 09:06:15;;;;;;;16.08;9.77;;;;;;;17.83;59.02;99437.97;4289571;33;33961;-72
2022/04/27 09:08:52;;;;;;;16.52;9.80;;;;;;;17.71;60.09;99433.19;4287705;33;33468;-72
2022/04/27 09:11:22;;;;;;;14.82;9.10;;;;;;;18.44;57.55;99432.06;4288970;33;36086;-71
2022/04/27 09:13:55;;;;;;;20.55;9.27;;;;;;;17.80;60.82;99435.44;4289939;33;33601;-71
2022/04/27 09:20:46;;;;;;;17.30;9.95;;;;;;;18.83;57.62;99431.31;4287894;33;34529;-71
2022/04/27 09:22:06;;;;;;;16.52;10.10;;;;;;;18.46;57.20;99437.22;4276207;33;33642;-72
2022/04/27 09:24:50;;;;;;;16.35;9.48;;;;;;;18.41;61.82;99434.81;4288724;33;34664;-72
2022/04/27 09:27:26;;;;;;;18.30;9.25;;;;;;;19.38;56.85;99435.91;4289079;33;33806;-72
2022/04/27 09:30:10;;;;;;;14.87;9.48;;;;;;;18.20;58.39;99431.28;4276626;33;34118;-72
2022/04/27 09:32:50;;;;;;;17.80;9.32;;;;;;;17.49;61.55;99444.53;4287925;33;35832;-72
2022/04/27 09:35:32;;;;;;;17.23;9.43;;;;;;;17.99;56.68;99435.63;4288674;33;34624;-71
2022/04/27 09:38:17;;;;;;;14.10;8.65;;;;;;;18.30;58.77;99424.72;4281470;33;33715;-71
2022/04/27 09:40:47;;;;;;;17.15;12.37;;;;;;;18.46;57.55;99421.41;4288087;33;34790;-75
2022/04/27 09:43:15;;;;;;;17.40;10.65;;;;;;;18.38;59.18;99425.22;4289044;33;35241;-72
2022/04/27 09:45:43;;;;;;;30.35;17.48;;;;;;;17.94;56.82;99432.31;4288449;33;34598;-71
2022/04/27 09:48:19;;;;;;;34.47;22.67;;;;;;;18.23;58.67;99433.78;4289266;33;33553;-72
2022/04/27 09:51:01;;;;;;;13.95;9.35;;;;;;;18.42;56.79;99435.66;4288311;33;33494;-72
2022/04/27 09:53:29;;;;;;;13.82;9.10;;;;;;;18.55;57.14;99426.31;4288833;33;35883;-72
2022/04/27 09:55:59;;;;;;;15.50;9.63;;;;;;;18.42;57.78;99430.37;4287416;33;34572;-72
2022/04/27 09:58:27;;;;;;;14.25;8.90;;;;;;;18.03;56.96;99428.47;4287934;33;34498;-71
2022/04/27 10:00:57;;;;;;;15.48;9.65;;;;;;;17.89;57.72;99435.13;4275169;33;34833;-71
2022/04/27 10:03:26;;;;;;;13.88;9.35;;;;;;;18.17;57.41;99426.97;4289090;33;35112;-72
2022/04/27 10:05:54;;;;;;;18.58;9.23;;;;;;;17.96;56.55;99433.09;4288174;33;34630;-72
2022/04/27 10:08:22;;;;;;;15.48;9.13;;;;;;;17.43;59.56;99434.22;4287881;33;33775;-72
2022/04/27 10:10:50;;;;;;;15.52;10.10;;;;;;;17.75;58.42;99438.28;4288687;33;34766;-72
2022/04/27 10:13:25;;;;;;;15.73;9.52;;;;;;;16.35;62.92;99448.47;4277943;33;35228;-72
2022/04/27 10:15:53;;;;;;;14.80;8.82;;;;;;;17.15;61.34;99445.75;4276073;33;34398;-72
2022/04/27 10:18:21;;;;;;;17.05;10.27;;;;;;;17.59;59.22;99447.66;4290930;33;33681;-72
2022/04/27 10:20:51;;;;;;;15.95;9.55;;;;;;;16.61;61.53;99444.97;4290242;33;33880;-72
2022/04/27 10:23:24;;;;;;;17.92;11.43;;;;;;;16.93;61.08;99445.66;4278134;33;35078;-71
2022/04/27 10:26:11;;;;;;;18.12;10.27;;;;;;;16.44;63.92;99448.16;4290509;33;34526;-71
2022/04/27 10:28:46;;;;;;;15.85;10.02;;;;;;;15.58;67.41;99447.34;4290073;33;34600;-72
2022/04/27 10:31:39;;;;;;;19.50;10.43;;;;;;;16.03;65.91;99458.25;4290010;33;34273;-72
2022/04/27 10:34:26;;;;;;;18.83;11.57;;;;;;;16.46;64.90;99456.84;4290775;33;35150;-71
2022/04/27 10:36:56;;;;;;;19.90;10.25;;;;;;;15.93;66.34;99451.53;4288862;33;34502;-71
2022/04/27 10:39:26;;;;;;;21.12;12.95;;;;;;;15.43;69.57;99451.28;4277989;33;33878;-72
2022/04/27 10:42:05;;;;;;;18.62;11.50;;;;;;;15.20;69.63;99460.66;4276162;33;33882;-72
2022/04/27 10:44:49;;;;;;;19.90;11.07;;;;;;;15.13;71.31;99459.09;4289988;33;34817;-72
2022/04/27 10:47:19;;;;;;;17.23;10.75;;;;;;;15.06;72.45;99453.16;4285467;33;34356;-72
2022/04/27 10:49:50;;;;;;;19.90;11.45;;;;;;;15.01;71.90;99454.19;4289805;33;33398;-72
2022/04/27 10:52:24;;;;;;;19.75;12.45;;;;;;;15.45;70.46;99458.19;4288721;33;34749;-71
2022/04/27 10:54:52;;;;;;;19.17;11.43;;;;;;;15.30;71.25;99461.25;4290740;33;35122;-71
2022/04/27 10:57:20;;;;;;;19.55;11.20;;;;;;;14.81;72.37;99458.22;4289890;33;35264;-71
2022/04/27 11:00:02;;;;;;;20.00;11.98;;;;;;;14.77;73.59;99454.81;4289115;33;33761;-71
2022/04/27 11:02:38;;;;;;;19.17;12.75;;;;;;;14.90;72.14;99457.97;4289145;33;33985;-71
2022/04/27 11:05:13;;;;;;;21.02;12.43;;;;;;;15.01;71.91;99462.06;4290688;33;35024;-72
2022/04/27 11:07:59;;;;;;;100.30;36.13;;;;;;;15.30;71.57;99458.63;4289712;33;35391;-72
2022/04/27 11:10:27;;;;;;;23.95;16.37;;;;;;;14.59;74.31;99465.75;4289615;33;34418;-72
2022/04/27 11:12:56;;;;;;;23.92;16.08;;;;;;;14.25;75.32;99463.91;4289734;33;33708;-72
2022/04/27 11:15:27;;;;;;;26.27;17.45;;;;;;;14.66;73.84;99466.44;4276902;33;34954;-72
2022/04/27 11:17:57;;;;;;;21.50;12.37;;;;;;;14.79;74.23;99460.00;4289855;33;33838;-72
2022/04/27 11:20:28;;;;;;;24.37;16.20;;;;;;;14.69;73.89;99464.62;4276589;33;32137;-71
2022/04/27 11:22:56;;;;;;;79.07;36.75;;;;;;;14.71;73.80;99467.19;4289362;33;34094;-72
2022/04/27 11:25:25;;;;;;;20.52;13.90;;;;;;;14.49;73.36;99466.84;4290483;33;34844;-72
2022/04/27 11:27:53;;;;;;;23.85;16.17;;;;;;;14.54;74.20;99467.59;4289675;33;35268;-70
2022/04/27 11:30:22;;;;;;;19.27;12.75;;;;;;;14.44;73.43;99471.34;4289558;33;34593;-74
2022/04/27 11:32:51;;;;;;;19.33;11.75;;;;;;;14.17;74.68;99469.34;4287629;33;33921;-75
2022/04/27 11:35:25;;;;;;;19.80;11.73;;;;;;;13.75;75.70;99464.19;4290174;33;35198;-76
2022/04/27 11:37:54;;;;;;;22.73;12.52;;;;;;;13.90;75.21;99467.34;4289575;33;35397;-75
2022/04/27 11:40:27;;;;;;;22.20;12.25;;;;;;;13.99;74.90;99472.38;4290213;33;33896;-74
2022/04/27 11:42:59;;;;;;;22.42;12.30;;;;;;;13.98;75.59;99471.53;4289505;33;34025;-74
2022/04/27 11:45:28;;;;;;;21.10;12.15;;;;;;;13.60;76.67;99474.97;4290206;33;34234;-73
2022/04/27 11:48:00;;;;;;;19.58;11.95;;;;;;;13.70;76.31;99475.66;4289382;33;34023;-75
2022/04/27 11:50:33;;;;;;;19.98;12.85;;;;;;;14.18;74.33;99468.44;4290200;33;33597;-76
2022/04/27 11:53:03;;;;;;;21.48;12.00;;;;;;;13.79;76.21;99473.69;4289309;33;34077;-74